sensor_id;sensor_type;location;lat;lon;timestamp;temperature;humidity
1680;DHT22;838;51.794;12.258;2022-12-05T00:01:46;4.20;89.30
1680;DHT22;838;51.794;12.258;2022-12-05T00:04:13;4.00;89.80
1680;DHT22;838;51.794;12.258;2022-12-05T00:06:40;4.20;91.60
1680;DHT22;838;51.794;12.258;2022-12-05T00:09:07;4.20;90.40
1680;DHT22;838;51.794;12.258;2022-12-05T00:11:35;4.20;89.90
1680;DHT22;838;51.794;12.258;2022-12-05T00:14:03;4.10;90.50
1680;DHT22;838;51.794;12.258;2022-12-05T00:16:30;4.10;90.70
1680;DHT22;838;51.794;12.258;2022-12-05T00:18:59;4.10;91.10
1680;DHT22;838;51.794;12.258;2022-12-05T00:21:27;4.10;91.00
1680;DHT22;838;51.794;12.258;2022-12-05T00:23:55;4.20;91.50
1680;DHT22;838;51.794;12.258;2022-12-05T00:26:21;4.30;91.00
1680;DHT22;838;51.794;12.258;2022-12-05T00:28:47;4.20;90.20
1680;DHT22;838;51.794;12.258;2022-12-05T00:31:16;4.30;91.10
1680;DHT22;838;51.794;12.258;2022-12-05T00:33:42;4.30;90.30
1680;DHT22;838;51.794;12.258;2022-12-05T00:36:13;4.40;90.00
1680;DHT22;838;51.794;12.258;2022-12-05T00:38:40;4.30;90.50
1680;DHT22;838;51.794;12.258;2022-12-05T00:41:09;4.30;90.20
1680;DHT22;838;51.794;12.258;2022-12-05T00:43:35;4.40;90.10
1680;DHT22;838;51.794;12.258;2022-12-05T00:46:02;4.70;90.30
1680;DHT22;838;51.794;12.258;2022-12-05T00:48:28;4.60;85.00
1680;DHT22;838;51.794;12.258;2022-12-05T00:53:31;4.70;87.40
1680;DHT22;838;51.794;12.258;2022-12-05T00:56:05;4.70;86.50
1680;DHT22;838;51.794;12.258;2022-12-05T00:58:32;4.70;86.50
1680;DHT22;838;51.794;12.258;2022-12-05T01:01:12;4.70;86.50
1680;DHT22;838;51.794;12.258;2022-12-05T01:03:38;4.60;84.50
1680;DHT22;838;51.794;12.258;2022-12-05T01:06:05;4.60;87.20
1680;DHT22;838;51.794;12.258;2022-12-05T01:08:32;4.70;86.00
1680;DHT22;838;51.794;12.258;2022-12-05T01:10:58;4.70;85.60
1680;DHT22;838;51.794;12.258;2022-12-05T01:13:25;4.90;83.70
1680;DHT22;838;51.794;12.258;2022-12-05T01:15:51;4.80;83.50
1680;DHT22;838;51.794;12.258;2022-12-05T01:18:18;4.80;81.50
1680;DHT22;838;51.794;12.258;2022-12-05T01:20:44;4.90;86.00
1680;DHT22;838;51.794;12.258;2022-12-05T01:23:10;4.90;81.00
1680;DHT22;838;51.794;12.258;2022-12-05T01:25:40;4.90;83.80
1680;DHT22;838;51.794;12.258;2022-12-05T01:28:07;5.10;81.40
1680;DHT22;838;51.794;12.258;2022-12-05T01:30:39;5.10;78.20
1680;DHT22;838;51.794;12.258;2022-12-05T01:33:05;4.90;78.20
1680;DHT22;838;51.794;12.258;2022-12-05T01:35:33;4.80;81.50
1680;DHT22;838;51.794;12.258;2022-12-05T01:37:59;4.80;83.00
1680;DHT22;838;51.794;12.258;2022-12-05T01:40:25;4.80;83.00
1680;DHT22;838;51.794;12.258;2022-12-05T01:42:51;4.80;82.40
1680;DHT22;838;51.794;12.258;2022-12-05T01:45:23;4.80;82.30
1680;DHT22;838;51.794;12.258;2022-12-05T01:47:54;4.80;84.10
1680;DHT22;838;51.794;12.258;2022-12-05T01:50:20;4.90;85.00
1680;DHT22;838;51.794;12.258;2022-12-05T01:52:46;5.00;81.60
1680;DHT22;838;51.794;12.258;2022-12-05T01:55:13;5.10;79.70
1680;DHT22;838;51.794;12.258;2022-12-05T01:57:40;5.00;78.70
1680;DHT22;838;51.794;12.258;2022-12-05T02:00:18;5.00;80.20
1680;DHT22;838;51.794;12.258;2022-12-05T02:02:56;4.90;80.40
1680;DHT22;838;51.794;12.258;2022-12-05T02:05:29;5.00;80.40
1680;DHT22;838;51.794;12.258;2022-12-05T02:07:57;5.00;77.00
1680;DHT22;838;51.794;12.258;2022-12-05T02:10:25;5.00;79.80
1680;DHT22;838;51.794;12.258;2022-12-05T02:12:51;5.10;80.10
1680;DHT22;838;51.794;12.258;2022-12-05T02:23:24;4.90;81.80
1680;DHT22;838;51.794;12.258;2022-12-05T02:34:48;4.90;78.50
1680;DHT22;838;51.794;12.258;2022-12-05T02:37:21;5.20;76.50
1680;DHT22;838;51.794;12.258;2022-12-05T02:40:04;5.00;75.30
1680;DHT22;838;51.794;12.258;2022-12-05T02:45:06;4.70;80.60
1680;DHT22;838;51.794;12.258;2022-12-05T02:47:37;4.70;82.40
1680;DHT22;838;51.794;12.258;2022-12-05T02:50:06;4.70;82.50
1680;DHT22;838;51.794;12.258;2022-12-05T02:52:33;4.70;83.30
1680;DHT22;838;51.794;12.258;2022-12-05T02:55:00;4.50;84.50
1680;DHT22;838;51.794;12.258;2022-12-05T02:57:27;4.50;85.80
1680;DHT22;838;51.794;12.258;2022-12-05T02:59:53;4.60;87.70
1680;DHT22;838;51.794;12.258;2022-12-05T03:02:30;4.60;87.30
1680;DHT22;838;51.794;12.258;2022-12-05T03:08:11;4.40;88.60
1680;DHT22;838;51.794;12.258;2022-12-05T03:10:41;4.50;88.70
1680;DHT22;838;51.794;12.258;2022-12-05T03:13:20;4.40;89.10
1680;DHT22;838;51.794;12.258;2022-12-05T03:15:54;4.50;89.60
1680;DHT22;838;51.794;12.258;2022-12-05T03:18:31;4.50;88.70
1680;DHT22;838;51.794;12.258;2022-12-05T03:23:41;4.50;88.20
1680;DHT22;838;51.794;12.258;2022-12-05T03:29:23;4.50;89.70
1680;DHT22;838;51.794;12.258;2022-12-05T03:40:18;4.70;90.70
1680;DHT22;838;51.794;12.258;2022-12-05T03:48:34;4.70;88.80
1680;DHT22;838;51.794;12.258;2022-12-05T03:51:05;4.90;87.80
1680;DHT22;838;51.794;12.258;2022-12-05T03:53:36;4.90;86.90
1680;DHT22;838;51.794;12.258;2022-12-05T03:56:14;5.00;86.20
1680;DHT22;838;51.794;12.258;2022-12-05T03:58:58;5.00;83.20
1680;DHT22;838;51.794;12.258;2022-12-05T04:01:26;4.90;84.90
1680;DHT22;838;51.794;12.258;2022-12-05T04:03:56;4.80;84.30
1680;DHT22;838;51.794;12.258;2022-12-05T04:06:28;4.90;85.70
1680;DHT22;838;51.794;12.258;2022-12-05T04:09:11;4.80;84.90
1680;DHT22;838;51.794;12.258;2022-12-05T04:11:46;4.90;87.50
1680;DHT22;838;51.794;12.258;2022-12-05T04:14:16;5.10;86.80
1680;DHT22;838;51.794;12.258;2022-12-05T04:16:46;5.00;83.60
1680;DHT22;838;51.794;12.258;2022-12-05T04:19:46;5.00;85.80
1680;DHT22;838;51.794;12.258;2022-12-05T04:22:32;4.80;85.80
1680;DHT22;838;51.794;12.258;2022-12-05T04:25:01;4.70;87.20
1680;DHT22;838;51.794;12.258;2022-12-05T04:30:23;4.90;88.40
1680;DHT22;838;51.794;12.258;2022-12-05T04:35:28;4.90;84.70
1680;DHT22;838;51.794;12.258;2022-12-05T04:38:04;4.70;85.60
1680;DHT22;838;51.794;12.258;2022-12-05T04:40:39;5.00;88.00
1680;DHT22;838;51.794;12.258;2022-12-05T04:43:07;5.00;85.20
1680;DHT22;838;51.794;12.258;2022-12-05T04:45:36;5.10;87.50
1680;DHT22;838;51.794;12.258;2022-12-05T04:48:09;5.50;86.20
1680;DHT22;838;51.794;12.258;2022-12-05T04:50:37;5.90;79.50
1680;DHT22;838;51.794;12.258;2022-12-05T04:53:05;5.80;72.30
1680;DHT22;838;51.794;12.258;2022-12-05T04:55:33;5.70;76.70
1680;DHT22;838;51.794;12.258;2022-12-05T04:58:05;5.90;75.50
1680;DHT22;838;51.794;12.258;2022-12-05T05:00:37;6.20;70.90
1680;DHT22;838;51.794;12.258;2022-12-05T05:03:18;6.30;66.40
1680;DHT22;838;51.794;12.258;2022-12-05T05:05:47;6.10;69.40
1680;DHT22;838;51.794;12.258;2022-12-05T05:08:21;6.20;69.10
1680;DHT22;838;51.794;12.258;2022-12-05T05:13:27;6.10;66.90
1680;DHT22;838;51.794;12.258;2022-12-05T05:15:53;6.10;65.10
1680;DHT22;838;51.794;12.258;2022-12-05T05:18:19;6.20;67.20
1680;DHT22;838;51.794;12.258;2022-12-05T05:20:44;6.40;64.90
1680;DHT22;838;51.794;12.258;2022-12-05T05:23:10;6.50;64.20
1680;DHT22;838;51.794;12.258;2022-12-05T05:25:36;6.80;61.90
1680;DHT22;838;51.794;12.258;2022-12-05T05:28:01;6.90;58.50
1680;DHT22;838;51.794;12.258;2022-12-05T05:30:27;6.90;59.20
1680;DHT22;838;51.794;12.258;2022-12-05T05:32:53;6.90;56.80
1680;DHT22;838;51.794;12.258;2022-12-05T05:35:19;6.60;58.00
1680;DHT22;838;51.794;12.258;2022-12-05T05:37:46;6.50;62.30
1680;DHT22;838;51.794;12.258;2022-12-05T05:40:12;6.70;59.40
1680;DHT22;838;51.794;12.258;2022-12-05T05:42:56;6.80;58.00
1680;DHT22;838;51.794;12.258;2022-12-05T05:45:22;7.00;56.00
1680;DHT22;838;51.794;12.258;2022-12-05T05:47:48;6.70;53.60
1680;DHT22;838;51.794;12.258;2022-12-05T05:50:15;6.80;59.10
1680;DHT22;838;51.794;12.258;2022-12-05T05:52:40;7.00;56.10
1680;DHT22;838;51.794;12.258;2022-12-05T05:55:07;7.10;54.40
1680;DHT22;838;51.794;12.258;2022-12-05T05:57:33;7.20;52.30
1680;DHT22;838;51.794;12.258;2022-12-05T06:00:00;7.20;52.20
1680;DHT22;838;51.794;12.258;2022-12-05T06:02:31;7.40;51.80
1680;DHT22;838;51.794;12.258;2022-12-05T06:04:56;7.40;50.40
1680;DHT22;838;51.794;12.258;2022-12-05T06:07:22;7.40;48.60
1680;DHT22;838;51.794;12.258;2022-12-05T06:09:48;7.30;49.10
1680;DHT22;838;51.794;12.258;2022-12-05T06:12:13;7.20;50.70
1680;DHT22;838;51.794;12.258;2022-12-05T06:14:39;7.00;50.60
1680;DHT22;838;51.794;12.258;2022-12-05T06:17:04;6.90;53.30
1680;DHT22;838;51.794;12.258;2022-12-05T06:19:30;7.10;53.40
1680;DHT22;838;51.794;12.258;2022-12-05T06:21:56;7.20;51.70
1680;DHT22;838;51.794;12.258;2022-12-05T06:24:21;7.20;50.70
1680;DHT22;838;51.794;12.258;2022-12-05T06:26:47;7.30;50.50
1680;DHT22;838;51.794;12.258;2022-12-05T06:29:13;7.30;49.70
1680;DHT22;838;51.794;12.258;2022-12-05T06:31:40;7.50;48.50
1680;DHT22;838;51.794;12.258;2022-12-05T06:34:06;7.50;47.30
1680;DHT22;838;51.794;12.258;2022-12-05T06:36:32;7.60;47.00
1680;DHT22;838;51.794;12.258;2022-12-05T06:38:58;7.50;45.00
1680;DHT22;838;51.794;12.258;2022-12-05T06:41:25;7.20;47.70
1680;DHT22;838;51.794;12.258;2022-12-05T06:43:56;7.20;49.00
1680;DHT22;838;51.794;12.258;2022-12-05T06:46:24;7.30;47.40
1680;DHT22;838;51.794;12.258;2022-12-05T06:48:55;7.30;46.80
1680;DHT22;838;51.794;12.258;2022-12-05T06:51:21;7.40;46.90
1680;DHT22;838;51.794;12.258;2022-12-05T06:53:46;7.40;46.00
1680;DHT22;838;51.794;12.258;2022-12-05T06:56:14;7.40;45.80
1680;DHT22;838;51.794;12.258;2022-12-05T06:58:42;7.40;44.90
1680;DHT22;838;51.794;12.258;2022-12-05T07:01:12;7.30;45.20
1680;DHT22;838;51.794;12.258;2022-12-05T07:03:57;7.10;45.30
1680;DHT22;838;51.794;12.258;2022-12-05T07:06:23;7.10;46.30
1680;DHT22;838;51.794;12.258;2022-12-05T07:08:49;7.20;46.30
1680;DHT22;838;51.794;12.258;2022-12-05T07:11:15;7.10;44.60
1680;DHT22;838;51.794;12.258;2022-12-05T07:13:40;7.00;45.60
1680;DHT22;838;51.794;12.258;2022-12-05T07:16:07;7.00;46.90
1680;DHT22;838;51.794;12.258;2022-12-05T07:18:33;6.90;45.70
1680;DHT22;838;51.794;12.258;2022-12-05T07:21:01;6.90;48.80
1680;DHT22;838;51.794;12.258;2022-12-05T07:23:27;7.10;47.20
1680;DHT22;838;51.794;12.258;2022-12-05T07:25:53;7.20;46.70
1680;DHT22;838;51.794;12.258;2022-12-05T07:28:19;7.10;47.30
1680;DHT22;838;51.794;12.258;2022-12-05T07:30:45;7.20;46.20
1680;DHT22;838;51.794;12.258;2022-12-05T07:33:11;7.30;45.90
1680;DHT22;838;51.794;12.258;2022-12-05T07:35:36;7.40;45.50
1680;DHT22;838;51.794;12.258;2022-12-05T07:38:02;7.40;45.30
1680;DHT22;838;51.794;12.258;2022-12-05T07:40:28;7.40;44.40
1680;DHT22;838;51.794;12.258;2022-12-05T07:42:53;7.30;45.00
1680;DHT22;838;51.794;12.258;2022-12-05T07:45:20;7.30;46.40
1680;DHT22;838;51.794;12.258;2022-12-05T07:47:46;7.40;45.00
1680;DHT22;838;51.794;12.258;2022-12-05T07:50:12;7.20;44.30
1680;DHT22;838;51.794;12.258;2022-12-05T07:52:38;7.10;47.40
1680;DHT22;838;51.794;12.258;2022-12-05T07:55:04;7.10;47.60
1680;DHT22;838;51.794;12.258;2022-12-05T07:57:30;7.20;46.70
1680;DHT22;838;51.794;12.258;2022-12-05T07:59:56;7.20;46.20
1680;DHT22;838;51.794;12.258;2022-12-05T08:02:22;7.20;45.50
1680;DHT22;838;51.794;12.258;2022-12-05T08:04:48;7.20;46.70
1680;DHT22;838;51.794;12.258;2022-12-05T08:07:14;7.10;45.10
1680;DHT22;838;51.794;12.258;2022-12-05T08:09:39;7.00;46.70
1680;DHT22;838;51.794;12.258;2022-12-05T08:12:05;6.60;51.50
1680;DHT22;838;51.794;12.258;2022-12-05T08:14:31;6.60;52.90
1680;DHT22;838;51.794;12.258;2022-12-05T08:16:57;6.60;53.40
1680;DHT22;838;51.794;12.258;2022-12-05T08:19:22;6.70;53.40
1680;DHT22;838;51.794;12.258;2022-12-05T08:21:48;6.90;51.90
1680;DHT22;838;51.794;12.258;2022-12-05T08:24:14;6.90;51.80
1680;DHT22;838;51.794;12.258;2022-12-05T08:26:39;7.10;50.60
1680;DHT22;838;51.794;12.258;2022-12-05T08:29:13;7.10;50.50
1680;DHT22;838;51.794;12.258;2022-12-05T08:31:42;7.30;49.30
1680;DHT22;838;51.794;12.258;2022-12-05T08:34:10;7.40;48.50
1680;DHT22;838;51.794;12.258;2022-12-05T08:36:37;7.30;47.10
1680;DHT22;838;51.794;12.258;2022-12-05T08:39:05;7.20;49.80
1680;DHT22;838;51.794;12.258;2022-12-05T08:41:31;7.10;49.80
1680;DHT22;838;51.794;12.258;2022-12-05T08:44:02;7.10;50.00
1680;DHT22;838;51.794;12.258;2022-12-05T08:46:34;7.00;50.60
1680;DHT22;838;51.794;12.258;2022-12-05T08:49:01;6.90;50.70
1680;DHT22;838;51.794;12.258;2022-12-05T08:51:26;6.80;53.40
1680;DHT22;838;51.794;12.258;2022-12-05T08:53:52;6.70;54.80
1680;DHT22;838;51.794;12.258;2022-12-05T08:56:18;6.80;54.00
1680;DHT22;838;51.794;12.258;2022-12-05T08:58:43;6.90;56.30
1680;DHT22;838;51.794;12.258;2022-12-05T09:01:14;6.90;53.60
1680;DHT22;838;51.794;12.258;2022-12-05T09:03:41;7.00;55.10
1680;DHT22;838;51.794;12.258;2022-12-05T09:06:09;7.10;53.50
1680;DHT22;838;51.794;12.258;2022-12-05T09:08:36;7.10;52.20
1680;DHT22;838;51.794;12.258;2022-12-05T09:11:10;7.00;52.30
1680;DHT22;838;51.794;12.258;2022-12-05T09:13:37;6.90;56.70
1680;DHT22;838;51.794;12.258;2022-12-05T09:16:10;6.90;56.10
1680;DHT22;838;51.794;12.258;2022-12-05T09:18:36;7.00;56.70
1680;DHT22;838;51.794;12.258;2022-12-05T09:21:13;7.10;55.50
1680;DHT22;838;51.794;12.258;2022-12-05T09:23:40;7.10;53.60
1680;DHT22;838;51.794;12.258;2022-12-05T09:26:07;6.90;57.50
1680;DHT22;838;51.794;12.258;2022-12-05T09:28:35;6.90;59.20
1680;DHT22;838;51.794;12.258;2022-12-05T09:31:03;7.10;58.10
1680;DHT22;838;51.794;12.258;2022-12-05T09:33:31;7.00;57.10
1680;DHT22;838;51.794;12.258;2022-12-05T09:35:57;7.00;57.90
1680;DHT22;838;51.794;12.258;2022-12-05T09:38:23;7.00;58.00
1680;DHT22;838;51.794;12.258;2022-12-05T09:40:55;6.70;58.80
1680;DHT22;838;51.794;12.258;2022-12-05T09:43:39;6.50;64.70
1680;DHT22;838;51.794;12.258;2022-12-05T09:49:03;6.30;68.40
1680;DHT22;838;51.794;12.258;2022-12-05T09:51:30;6.50;69.20
1680;DHT22;838;51.794;12.258;2022-12-05T09:53:56;6.50;68.40
1680;DHT22;838;51.794;12.258;2022-12-05T09:56:31;6.40;68.80
1680;DHT22;838;51.794;12.258;2022-12-05T09:58:58;6.50;70.20
1680;DHT22;838;51.794;12.258;2022-12-05T10:01:40;6.70;67.60
1680;DHT22;838;51.794;12.258;2022-12-05T10:15:43;6.50;75.20
1680;DHT22;838;51.794;12.258;2022-12-05T10:20:44;6.80;67.50
1680;DHT22;838;51.794;12.258;2022-12-05T10:23:18;6.70;67.30
1680;DHT22;838;51.794;12.258;2022-12-05T10:25:50;6.70;67.10
1680;DHT22;838;51.794;12.258;2022-12-05T10:28:32;6.70;67.10
1680;DHT22;838;51.794;12.258;2022-12-05T10:31:03;6.70;67.00
1680;DHT22;838;51.794;12.258;2022-12-05T10:33:43;6.40;68.40
1680;DHT22;838;51.794;12.258;2022-12-05T10:36:12;6.20;71.80
1680;DHT22;838;51.794;12.258;2022-12-05T10:38:41;6.00;73.60
1680;DHT22;838;51.794;12.258;2022-12-05T10:41:09;5.80;77.50
1680;DHT22;838;51.794;12.258;2022-12-05T10:43:36;5.80;79.30
1680;DHT22;838;51.794;12.258;2022-12-05T10:46:03;5.90;79.20
1680;DHT22;838;51.794;12.258;2022-12-05T10:48:30;6.00;81.60
1680;DHT22;838;51.794;12.258;2022-12-05T10:50:59;6.50;80.20
1680;DHT22;838;51.794;12.258;2022-12-05T10:53:38;6.60;74.20
1680;DHT22;838;51.794;12.258;2022-12-05T10:56:37;6.60;72.80
1680;DHT22;838;51.794;12.258;2022-12-05T10:59:04;6.70;73.70
1680;DHT22;838;51.794;12.258;2022-12-05T11:01:30;6.80;70.80
1680;DHT22;838;51.794;12.258;2022-12-05T11:07:03;6.50;69.70
1680;DHT22;838;51.794;12.258;2022-12-05T11:09:36;6.40;71.00
1680;DHT22;838;51.794;12.258;2022-12-05T11:17:47;6.00;76.60
1680;DHT22;838;51.794;12.258;2022-12-05T11:22:43;6.20;77.50
1680;DHT22;838;51.794;12.258;2022-12-05T11:25:29;6.20;73.40
1680;DHT22;838;51.794;12.258;2022-12-05T11:27:56;6.00;75.60
1680;DHT22;838;51.794;12.258;2022-12-05T11:30:26;6.00;73.60
1680;DHT22;838;51.794;12.258;2022-12-05T11:33:18;5.80;75.50
1680;DHT22;838;51.794;12.258;2022-12-05T11:35:45;5.90;76.10
1680;DHT22;838;51.794;12.258;2022-12-05T11:38:15;6.10;74.90
1680;DHT22;838;51.794;12.258;2022-12-05T11:46:07;6.00;70.30
1680;DHT22;838;51.794;12.258;2022-12-05T11:51:29;5.60;72.00
1680;DHT22;838;51.794;12.258;2022-12-05T11:56:53;5.30;76.70
1680;DHT22;838;51.794;12.258;2022-12-05T12:02:07;5.50;78.20
1680;DHT22;838;51.794;12.258;2022-12-05T12:04:55;5.60;74.70
1680;DHT22;838;51.794;12.258;2022-12-05T12:12:43;5.60;73.50
1680;DHT22;838;51.794;12.258;2022-12-05T12:29:48;5.50;74.40
1680;DHT22;838;51.794;12.258;2022-12-05T12:37:38;5.00;77.20
1680;DHT22;838;51.794;12.258;2022-12-05T12:40:13;5.00;76.80
1680;DHT22;838;51.794;12.258;2022-12-05T12:45:39;5.40;75.90
1680;DHT22;838;51.794;12.258;2022-12-05T12:51:00;5.40;73.90
1680;DHT22;838;51.794;12.258;2022-12-05T13:01:59;5.50;69.00
1680;DHT22;838;51.794;12.258;2022-12-05T13:07:44;5.30;72.20
1680;DHT22;838;51.794;12.258;2022-12-05T13:10:29;5.50;73.20
1680;DHT22;838;51.794;12.258;2022-12-05T13:12:59;5.40;70.10
1680;DHT22;838;51.794;12.258;2022-12-05T13:15:44;5.30;72.10
1680;DHT22;838;51.794;12.258;2022-12-05T13:18:22;5.20;71.10
1680;DHT22;838;51.794;12.258;2022-12-05T13:20:54;5.00;74.90
1680;DHT22;838;51.794;12.258;2022-12-05T13:23:24;5.10;76.90
1680;DHT22;838;51.794;12.258;2022-12-05T13:25:53;5.30;74.50
1680;DHT22;838;51.794;12.258;2022-12-05T13:31:01;5.20;70.00
1680;DHT22;838;51.794;12.258;2022-12-05T13:33:49;5.20;71.90
1680;DHT22;838;51.794;12.258;2022-12-05T13:36:21;5.20;72.40
1680;DHT22;838;51.794;12.258;2022-12-05T13:39:26;5.20;71.70
1680;DHT22;838;51.794;12.258;2022-12-05T13:42:25;5.20;71.50
1680;DHT22;838;51.794;12.258;2022-12-05T13:44:56;5.00;72.60
1680;DHT22;838;51.794;12.258;2022-12-05T13:52:31;4.90;74.40
1680;DHT22;838;51.794;12.258;2022-12-05T13:55:01;4.90;74.20
1680;DHT22;838;51.794;12.258;2022-12-05T14:07:52;5.30;72.20
1680;DHT22;838;51.794;12.258;2022-12-05T14:12:58;5.10;72.50
1680;DHT22;838;51.794;12.258;2022-12-05T14:15:34;5.10;72.20
1680;DHT22;838;51.794;12.258;2022-12-05T14:21:01;5.20;70.10
1680;DHT22;838;51.794;12.258;2022-12-05T14:23:47;4.90;69.20
1680;DHT22;838;51.794;12.258;2022-12-05T14:26:35;4.80;72.20
1680;DHT22;838;51.794;12.258;2022-12-05T14:34:53;4.70;72.40
1680;DHT22;838;51.794;12.258;2022-12-05T14:37:30;4.70;74.80
1680;DHT22;838;51.794;12.258;2022-12-05T14:39:58;4.60;73.80
1680;DHT22;838;51.794;12.258;2022-12-05T14:42:51;4.60;76.10
1680;DHT22;838;51.794;12.258;2022-12-05T14:45:56;4.50;75.70
1680;DHT22;838;51.794;12.258;2022-12-05T14:50:52;4.50;79.80
1680;DHT22;838;51.794;12.258;2022-12-05T14:53:34;4.70;78.30
1680;DHT22;838;51.794;12.258;2022-12-05T15:01:21;4.80;73.80
1680;DHT22;838;51.794;12.258;2022-12-05T15:04:08;4.60;74.70
1680;DHT22;838;51.794;12.258;2022-12-05T15:07:01;4.60;77.00
1680;DHT22;838;51.794;12.258;2022-12-05T15:09:36;4.70;73.90
1680;DHT22;838;51.794;12.258;2022-12-05T15:12:10;4.60;75.40
1680;DHT22;838;51.794;12.258;2022-12-05T15:14:43;4.70;75.50
1680;DHT22;838;51.794;12.258;2022-12-05T15:17:16;4.90;73.20
1680;DHT22;838;51.794;12.258;2022-12-05T15:19:50;4.90;72.40
1680;DHT22;838;51.794;12.258;2022-12-05T15:22:18;4.80;71.60
1680;DHT22;838;51.794;12.258;2022-12-05T15:24:45;4.80;71.60
1680;DHT22;838;51.794;12.258;2022-12-05T15:27:11;4.70;71.40
1680;DHT22;838;51.794;12.258;2022-12-05T15:29:39;4.80;72.30
1680;DHT22;838;51.794;12.258;2022-12-05T15:32:15;4.90;71.50
1680;DHT22;838;51.794;12.258;2022-12-05T15:35:00;5.10;69.50
1680;DHT22;838;51.794;12.258;2022-12-05T15:37:56;5.10;68.60
1680;DHT22;838;51.794;12.258;2022-12-05T15:40:24;5.20;67.50
1680;DHT22;838;51.794;12.258;2022-12-05T15:45:18;5.50;63.00
1680;DHT22;838;51.794;12.258;2022-12-05T15:50:45;5.80;61.10
1680;DHT22;838;51.794;12.258;2022-12-05T15:53:13;5.60;58.80
1680;DHT22;838;51.794;12.258;2022-12-05T15:55:53;5.70;56.40
1680;DHT22;838;51.794;12.258;2022-12-05T15:58:32;6.00;55.20
1680;DHT22;838;51.794;12.258;2022-12-05T16:01:05;6.00;53.60
1680;DHT22;838;51.794;12.258;2022-12-05T16:03:43;5.90;54.30
1680;DHT22;838;51.794;12.258;2022-12-05T16:08:58;5.70;55.30
1680;DHT22;838;51.794;12.258;2022-12-05T16:11:25;5.80;57.60
1680;DHT22;838;51.794;12.258;2022-12-05T16:13:55;6.00;53.90
1680;DHT22;838;51.794;12.258;2022-12-05T16:16:24;6.20;52.70
1680;DHT22;838;51.794;12.258;2022-12-05T16:18:55;6.40;49.10
1680;DHT22;838;51.794;12.258;2022-12-05T16:21:33;6.50;48.10
1680;DHT22;838;51.794;12.258;2022-12-05T16:24:20;6.50;48.20
1680;DHT22;838;51.794;12.258;2022-12-05T16:27:03;6.60;47.20
1680;DHT22;838;51.794;12.258;2022-12-05T16:29:34;6.60;46.80
1680;DHT22;838;51.794;12.258;2022-12-05T16:32:03;6.60;46.00
1680;DHT22;838;51.794;12.258;2022-12-05T16:34:32;6.50;46.10
1680;DHT22;838;51.794;12.258;2022-12-05T16:36:58;6.30;47.40
1680;DHT22;838;51.794;12.258;2022-12-05T16:39:26;6.10;47.80
1680;DHT22;838;51.794;12.258;2022-12-05T16:41:53;6.10;47.70
1680;DHT22;838;51.794;12.258;2022-12-05T16:47:22;5.70;51.70
1680;DHT22;838;51.794;12.258;2022-12-05T16:49:48;5.50;55.30
1680;DHT22;838;51.794;12.258;2022-12-05T16:52:14;5.50;55.90
1680;DHT22;838;51.794;12.258;2022-12-05T16:54:45;5.50;55.60
1680;DHT22;838;51.794;12.258;2022-12-05T16:57:12;5.70;55.90
1680;DHT22;838;51.794;12.258;2022-12-05T16:59:40;5.70;54.00
1680;DHT22;838;51.794;12.258;2022-12-05T17:02:15;5.60;54.40
1680;DHT22;838;51.794;12.258;2022-12-05T17:04:41;5.60;56.90
1680;DHT22;838;51.794;12.258;2022-12-05T17:07:07;5.60;53.90
1680;DHT22;838;51.794;12.258;2022-12-05T17:09:33;5.60;53.10
1680;DHT22;838;51.794;12.258;2022-12-05T17:12:09;5.30;54.60
1680;DHT22;838;51.794;12.258;2022-12-05T17:14:36;5.10;54.60
1680;DHT22;838;51.794;12.258;2022-12-05T17:17:01;5.00;58.80
1680;DHT22;838;51.794;12.258;2022-12-05T17:19:27;5.20;56.60
1680;DHT22;838;51.794;12.258;2022-12-05T17:21:53;5.40;53.30
1680;DHT22;838;51.794;12.258;2022-12-05T17:24:19;5.60;50.40
1680;DHT22;838;51.794;12.258;2022-12-05T17:26:45;5.70;47.90
1680;DHT22;838;51.794;12.258;2022-12-05T17:29:11;5.60;47.40
1680;DHT22;838;51.794;12.258;2022-12-05T17:31:37;5.60;46.90
1680;DHT22;838;51.794;12.258;2022-12-05T17:34:14;5.50;47.40
1680;DHT22;838;51.794;12.258;2022-12-05T17:36:40;5.20;45.30
1680;DHT22;838;51.794;12.258;2022-12-05T17:39:06;4.80;51.30
1680;DHT22;838;51.794;12.258;2022-12-05T17:41:33;4.80;54.60
1680;DHT22;838;51.794;12.258;2022-12-05T17:43:59;5.00;50.50
1680;DHT22;838;51.794;12.258;2022-12-05T17:46:24;4.60;50.40
1680;DHT22;838;51.794;12.258;2022-12-05T17:48:51;4.00;54.50
1680;DHT22;838;51.794;12.258;2022-12-05T17:51:18;3.50;60.30
1680;DHT22;838;51.794;12.258;2022-12-05T17:53:43;3.40;66.00
1680;DHT22;838;51.794;12.258;2022-12-05T17:56:11;3.50;68.60
1680;DHT22;838;51.794;12.258;2022-12-05T17:58:37;4.00;66.00
1680;DHT22;838;51.794;12.258;2022-12-05T18:01:03;4.50;61.30
1680;DHT22;838;51.794;12.258;2022-12-05T18:03:28;4.70;58.60
1680;DHT22;838;51.794;12.258;2022-12-05T18:05:54;5.10;54.90
1680;DHT22;838;51.794;12.258;2022-12-05T18:08:20;5.10;52.80
1680;DHT22;838;51.794;12.258;2022-12-05T18:10:47;5.00;51.30
1680;DHT22;838;51.794;12.258;2022-12-05T18:13:15;5.00;53.40
1680;DHT22;838;51.794;12.258;2022-12-05T18:15:41;5.00;52.60
1680;DHT22;838;51.794;12.258;2022-12-05T18:18:08;5.10;52.20
1680;DHT22;838;51.794;12.258;2022-12-05T18:20:35;5.20;50.90
1680;DHT22;838;51.794;12.258;2022-12-05T18:23:01;5.20;49.90
1680;DHT22;838;51.794;12.258;2022-12-05T18:25:28;5.10;51.70
1680;DHT22;838;51.794;12.258;2022-12-05T18:27:54;5.10;50.50
1680;DHT22;838;51.794;12.258;2022-12-05T18:30:20;5.00;51.40
1680;DHT22;838;51.794;12.258;2022-12-05T18:32:45;4.70;53.10
1680;DHT22;838;51.794;12.258;2022-12-05T18:35:11;4.70;54.90
1680;DHT22;838;51.794;12.258;2022-12-05T18:37:37;4.80;52.30
1680;DHT22;838;51.794;12.258;2022-12-05T18:40:04;4.80;54.50
1680;DHT22;838;51.794;12.258;2022-12-05T18:42:30;4.80;51.60
1680;DHT22;838;51.794;12.258;2022-12-05T18:44:56;5.00;52.70
1680;DHT22;838;51.794;12.258;2022-12-05T18:47:21;5.20;50.90
1680;DHT22;838;51.794;12.258;2022-12-05T18:49:48;5.40;47.30
1680;DHT22;838;51.794;12.258;2022-12-05T18:52:14;5.30;47.20
1680;DHT22;838;51.794;12.258;2022-12-05T18:54:40;5.40;48.30
1680;DHT22;838;51.794;12.258;2022-12-05T18:57:06;5.50;47.00
1680;DHT22;838;51.794;12.258;2022-12-05T18:59:32;5.40;47.20
1680;DHT22;838;51.794;12.258;2022-12-05T19:01:58;5.30;48.80
1680;DHT22;838;51.794;12.258;2022-12-05T19:04:25;5.20;48.90
1680;DHT22;838;51.794;12.258;2022-12-05T19:06:55;5.00;50.70
1680;DHT22;838;51.794;12.258;2022-12-05T19:09:24;5.00;51.80
1680;DHT22;838;51.794;12.258;2022-12-05T19:11:52;5.00;53.40
1680;DHT22;838;51.794;12.258;2022-12-05T19:14:23;5.20;52.40
1680;DHT22;838;51.794;12.258;2022-12-05T19:16:52;5.40;49.70
1680;DHT22;838;51.794;12.258;2022-12-05T19:19:18;5.40;49.40
1680;DHT22;838;51.794;12.258;2022-12-05T19:21:45;5.50;48.20
1680;DHT22;838;51.794;12.258;2022-12-05T19:24:13;5.50;46.40
1680;DHT22;838;51.794;12.258;2022-12-05T19:26:39;5.50;47.80
1680;DHT22;838;51.794;12.258;2022-12-05T19:29:06;5.60;44.30
1680;DHT22;838;51.794;12.258;2022-12-05T19:31:32;5.60;47.60
1680;DHT22;838;51.794;12.258;2022-12-05T19:34:01;5.70;46.20
1680;DHT22;838;51.794;12.258;2022-12-05T19:36:30;5.50;46.50
1680;DHT22;838;51.794;12.258;2022-12-05T19:38:57;5.30;49.60
1680;DHT22;838;51.794;12.258;2022-12-05T19:41:25;5.10;50.10